Time;durP1;ratioP1;P1;durP2;ratioP2;P2;SDS_P1;SDS_P2;PMS_P1;PMS_P2;Temp;Humidity;BMP_temperature;BMP_pressure;BME280_temperature;BME280_humidity;BME280_pressure;Samples;Min_cycle;Max_cycle;Signal;HPM_P1;HPM_P2
2020/12/03 00:01:02;;;;;;;138.88;56.30;;;;;;;;;;5030669;28;20158;-61
2020/12/03 00:03:32;;;;;;;132.60;53.78;;;;;;;;;;5083123;28;20033;-61
2020/12/03 00:06:04;;;;;;;130.40;53.30;;;;;;;;;;5079928;28;20041;-61
2020/12/03 00:08:32;;;;;;;136.90;55.90;;;;;;;;;;5070524;28;20039;-61
2020/12/03 00:11:00;;;;;;;134.60;53.83;;;;;;;;;;5076417;28;20077;-61
2020/12/03 00:13:27;;;;;;;134.25;54.47;;;;;;;;;;5079348;28;20028;-61
2020/12/03 00:15:54;;;;;;;139.07;53.17;;;;;;;;;;5076924;28;20639;-61
2020/12/03 00:18:20;;;;;;;137.43;54.47;;;;;;;;;;5073829;28;20028;-61
2020/12/03 00:20:46;;;;;;;137.13;53.55;;;;;;;;;;5076509;28;20029;-61
2020/12/03 00:23:13;;;;;;;135.05;52.03;;;;;;;;;;5073900;28;20023;-61
2020/12/03 00:25:39;;;;;;;129.82;52.90;;;;;;;;;;5073682;28;20024;-61
2020/12/03 00:28:05;;;;;;;129.20;51.92;;;;;;;;;;5065149;28;20458;-61
2020/12/03 00:30:31;;;;;;;131.10;52.78;;;;;;;;;;5051452;28;20685;-61
2020/12/03 00:32:57;;;;;;;132.30;51.00;;;;;;;;;;5074834;28;20032;-61
2020/12/03 00:35:24;;;;;;;130.68;51.25;;;;;;;;;;5077590;28;20031;-61
2020/12/03 00:37:50;;;;;;;134.95;52.10;;;;;;;;;;5075038;28;20068;-61
2020/12/03 00:40:17;;;;;;;129.85;50.63;;;;;;;;;;5076745;28;20520;-61
2020/12/03 00:42:43;;;;;;;128.65;50.90;;;;;;;;;;5080045;28;20077;-61
2020/12/03 00:45:10;;;;;;;124.63;49.83;;;;;;;;;;5075013;28;20028;-61
2020/12/03 00:47:37;;;;;;;137.18;52.45;;;;;;;;;;5077685;28;20039;-61
2020/12/03 00:50:04;;;;;;;125.10;51.05;;;;;;;;;;5089405;28;20036;-61
2020/12/03 00:52:30;;;;;;;117.25;49.13;;;;;;;;;;5073225;28;20056;-60
2020/12/03 00:54:56;;;;;;;122.60;49.78;;;;;;;;;;5077294;28;20105;-61
2020/12/03 00:57:22;;;;;;;125.25;50.92;;;;;;;;;;5079267;28;20035;-61
2020/12/03 00:59:48;;;;;;;119.40;49.05;;;;;;;;;;5090647;28;20028;-61
2020/12/03 01:02:15;;;;;;;119.07;49.75;;;;;;;;;;5077266;28;20093;-61
2020/12/03 01:04:41;;;;;;;121.78;50.85;;;;;;;;;;5075159;28;20422;-61
2020/12/03 01:07:07;;;;;;;124.93;48.83;;;;;;;;;;5077598;28;20024;-61
2020/12/03 01:09:35;;;;;;;133.90;52.00;;;;;;;;;;5091602;28;20035;-61
2020/12/03 01:12:01;;;;;;;124.78;52.20;;;;;;;;;;5082386;28;20363;-61
2020/12/03 01:14:27;;;;;;;125.55;50.45;;;;;;;;;;5079983;28;20025;-61
2020/12/03 01:16:53;;;;;;;127.22;50.70;;;;;;;;;;5078608;28;20032;-61
2020/12/03 01:19:19;;;;;;;122.93;48.33;;;;;;;;;;5070204;28;20036;-61
2020/12/03 01:21:45;;;;;;;121.18;48.92;;;;;;;;;;5073436;28;20024;-61
2020/12/03 01:24:11;;;;;;;120.95;47.70;;;;;;;;;;5063827;28;20026;-61
2020/12/03 01:26:37;;;;;;;123.00;47.75;;;;;;;;;;5072058;28;20410;-61
2020/12/03 01:29:03;;;;;;;125.90;50.10;;;;;;;;;;5084901;28;20016;-61
2020/12/03 01:31:31;;;;;;;119.38;48.45;;;;;;;;;;5089375;28;20031;-60
2020/12/03 01:33:57;;;;;;;120.35;45.50;;;;;;;;;;5092106;28;20363;-61
2020/12/03 01:36:23;;;;;;;114.63;46.60;;;;;;;;;;5079499;28;20033;-61
2020/12/03 01:38:49;;;;;;;122.75;47.83;;;;;;;;;;5074968;28;20636;-61
2020/12/03 01:41:15;;;;;;;121.15;49.72;;;;;;;;;;5082675;28;20402;-61
2020/12/03 01:43:42;;;;;;;131.30;50.05;;;;;;;;;;5071923;28;20024;-61
2020/12/03 01:46:08;;;;;;;117.93;47.70;;;;;;;;;;5082584;28;20039;-61
2020/12/03 01:48:37;;;;;;;129.40;48.17;;;;;;;;;;5070613;28;20525;-61
2020/12/03 01:51:04;;;;;;;125.78;48.20;;;;;;;;;;5084114;28;20025;-61
2020/12/03 01:53:31;;;;;;;128.02;49.50;;;;;;;;;;5073456;28;20071;-61
2020/12/03 01:55:57;;;;;;;112.15;48.33;;;;;;;;;;5085028;28;20071;-61
2020/12/03 01:58:31;;;;;;;126.10;50.25;;;;;;;;;;5079728;28;20534;-61
2020/12/03 02:00:57;;;;;;;127.45;48.17;;;;;;;;;;5068915;28;20488;-61
2020/12/03 02:03:23;;;;;;;124.57;49.33;;;;;;;;;;5085510;28;20107;-61
2020/12/03 02:05:49;;;;;;;125.25;49.15;;;;;;;;;;5084563;28;20032;-61
2020/12/03 02:08:15;;;;;;;123.60;48.50;;;;;;;;;;5072376;28;20040;-61
2020/12/03 02:10:41;;;;;;;127.82;47.47;;;;;;;;;;5076367;28;20094;-61
2020/12/03 02:13:07;;;;;;;129.95;48.60;;;;;;;;;;5070767;28;20658;-61
2020/12/03 02:15:36;;;;;;;131.02;49.45;;;;;;;;;;5071082;28;20032;-60
2020/12/03 02:18:02;;;;;;;123.28;48.80;;;;;;;;;;5084983;28;20042;-61
2020/12/03 02:20:28;;;;;;;127.88;50.53;;;;;;;;;;5078179;28;20048;-61
2020/12/03 02:22:54;;;;;;;136.70;52.47;;;;;;;;;;5071801;28;20024;-61
2020/12/03 02:25:20;;;;;;;141.23;52.28;;;;;;;;;;5091243;28;20035;-61
2020/12/03 02:27:46;;;;;;;139.65;52.63;;;;;;;;;;5063283;28;20031;-61
2020/12/03 02:30:13;;;;;;;134.70;50.22;;;;;;;;;;5063536;28;20039;-61
2020/12/03 02:32:39;;;;;;;121.55;48.38;;;;;;;;;;5069651;28;20086;-61
2020/12/03 02:35:06;;;;;;;128.10;48.90;;;;;;;;;;5080722;28;20031;-61
2020/12/03 02:37:32;;;;;;;123.47;48.85;;;;;;;;;;5086994;28;20038;-61
2020/12/03 02:39:58;;;;;;;127.43;51.17;;;;;;;;;;5084052;28;20459;-61
2020/12/03 02:42:24;;;;;;;122.60;49.15;;;;;;;;;;5079448;28;20359;-61
2020/12/03 02:44:50;;;;;;;122.22;47.65;;;;;;;;;;5075420;28;20286;-61
2020/12/03 02:47:18;;;;;;;116.93;48.58;;;;;;;;;;5073086;28;20534;-61
2020/12/03 02:49:44;;;;;;;120.32;48.42;;;;;;;;;;5079888;28;20497;-61
2020/12/03 02:52:14;;;;;;;127.93;48.83;;;;;;;;;;5073551;28;20035;-61
2020/12/03 02:54:41;;;;;;;124.45;48.83;;;;;;;;;;5079850;28;20046;-61
2020/12/03 02:57:07;;;;;;;123.32;48.58;;;;;;;;;;5076873;28;20020;-61
2020/12/03 02:59:33;;;;;;;123.28;49.50;;;;;;;;;;5072287;28;20029;-60
2020/12/03 03:01:59;;;;;;;126.57;49.38;;;;;;;;;;5077659;28;20127;-61
2020/12/03 03:04:25;;;;;;;127.00;50.55;;;;;;;;;;5072037;28;20365;-61
2020/12/03 03:06:52;;;;;;;121.63;49.72;;;;;;;;;;5077444;28;20099;-61
2020/12/03 03:09:18;;;;;;;122.05;48.95;;;;;;;;;;5070561;28;20025;-61
2020/12/03 03:11:44;;;;;;;122.82;48.45;;;;;;;;;;5085592;28;20024;-61
2020/12/03 03:14:10;;;;;;;129.23;50.83;;;;;;;;;;5068798;28;20028;-61
2020/12/03 03:16:36;;;;;;;130.27;49.58;;;;;;;;;;5073591;28;20063;-61
2020/12/03 03:19:03;;;;;;;128.27;50.42;;;;;;;;;;5081013;28;20085;-61
2020/12/03 03:21:29;;;;;;;126.80;51.28;;;;;;;;;;5083060;28;20031;-61
2020/12/03 03:23:55;;;;;;;122.32;50.60;;;;;;;;;;5075120;28;20666;-61
2020/12/03 03:26:21;;;;;;;121.30;49.42;;;;;;;;;;5071451;28;20085;-60
2020/12/03 03:28:47;;;;;;;121.50;48.65;;;;;;;;;;5071153;28;20020;-61
2020/12/03 03:31:13;;;;;;;122.18;49.63;;;;;;;;;;5085759;28;20024;-61
2020/12/03 03:33:39;;;;;;;131.80;50.78;;;;;;;;;;5070703;28;20028;-61
2020/12/03 03:36:05;;;;;;;128.05;51.53;;;;;;;;;;5083293;28;20024;-61
2020/12/03 03:38:31;;;;;;;128.60;51.03;;;;;;;;;;5078649;28;20076;-61
2020/12/03 03:40:57;;;;;;;126.43;50.08;;;;;;;;;;5080108;28;20024;-61
2020/12/03 03:43:23;;;;;;;125.03;49.60;;;;;;;;;;5077540;28;20530;-61
2020/12/03 03:45:49;;;;;;;125.60;49.97;;;;;;;;;;5072844;28;20182;-61
2020/12/03 03:48:15;;;;;;;127.38;51.97;;;;;;;;;;5075180;28;20059;-61
2020/12/03 03:50:41;;;;;;;129.63;50.63;;;;;;;;;;5082173;28;20033;-61
2020/12/03 03:53:07;;;;;;;125.57;50.97;;;;;;;;;;5080182;28;20073;-61
2020/12/03 03:55:33;;;;;;;126.82;52.20;;;;;;;;;;5085958;28;20032;-61
2020/12/03 03:57:59;;;;;;;124.57;51.30;;;;;;;;;;5066108;28;20024;-61
2020/12/03 04:00:25;;;;;;;127.43;51.05;;;;;;;;;;5082146;28;20050;-61
2020/12/03 04:02:51;;;;;;;122.93;49.90;;;;;;;;;;5082382;28;20061;-61
2020/12/03 04:05:18;;;;;;;127.68;50.88;;;;;;;;;;5083100;28;20025;-61
2020/12/03 04:07:44;;;;;;;135.10;50.40;;;;;;;;;;5079479;28;20363;-61
2020/12/03 04:10:11;;;;;;;131.50;50.83;;;;;;;;;;5074148;28;20037;-61
2020/12/03 04:12:38;;;;;;;124.25;50.80;;;;;;;;;;5068850;28;20036;-61
2020/12/03 04:15:04;;;;;;;132.80;53.47;;;;;;;;;;5080167;28;20636;-61
2020/12/03 04:17:30;;;;;;;128.57;51.78;;;;;;;;;;5068339;28;20028;-61
2020/12/03 04:19:57;;;;;;;129.98;50.45;;;;;;;;;;5076236;28;20527;-61
2020/12/03 04:22:27;;;;;;;123.55;51.47;;;;;;;;;;5066053;28;20048;-61
2020/12/03 04:24:53;;;;;;;121.68;51.85;;;;;;;;;;5082835;28;20060;-61
2020/12/03 04:27:20;;;;;;;127.28;51.58;;;;;;;;;;5083205;28;20054;-61
2020/12/03 04:29:46;;;;;;;129.27;52.08;;;;;;;;;;5076943;28;20039;-61
2020/12/03 04:32:12;;;;;;;125.85;50.78;;;;;;;;;;5071904;28;20170;-61
2020/12/03 04:34:38;;;;;;;136.68;50.33;;;;;;;;;;5069488;28;20371;-61
2020/12/03 04:37:04;;;;;;;134.63;53.75;;;;;;;;;;5069558;28;20479;-61
2020/12/03 04:39:29;;;;;;;121.13;52.08;;;;;;;;;;5076742;28;20748;-61
2020/12/03 04:41:55;;;;;;;133.32;53.22;;;;;;;;;;5070132;28;20371;-61
2020/12/03 04:44:25;;;;;;;133.25;54.97;;;;;;;;;;5084667;28;20043;-61
2020/12/03 04:47:10;;;;;;;135.02;54.40;;;;;;;;;;5081002;28;20032;-61
2020/12/03 04:49:49;;;;;;;131.40;55.22;;;;;;;;;;5077208;28;20030;-61
2020/12/03 04:52:34;;;;;;;136.30;55.05;;;;;;;;;;5082283;28;20036;-61
2020/12/03 04:55:00;;;;;;;132.13;53.47;;;;;;;;;;5068768;28;20020;-61
2020/12/03 04:57:28;;;;;;;129.35;53.33;;;;;;;;;;5072322;28;20073;-61
2020/12/03 04:59:58;;;;;;;127.22;52.55;;;;;;;;;;5076449;28;20037;-61
2020/12/03 05:02:59;;;;;;;133.35;52.60;;;;;;;;;;5077619;28;20044;-61
2020/12/03 05:05:25;;;;;;;152.27;63.45;;;;;;;;;;5002778;28;20048;-61
2020/12/03 05:07:57;;;;;;;142.23;59.63;;;;;;;;;;5044201;28;20033;-61
2020/12/03 05:10:29;;;;;;;139.23;59.35;;;;;;;;;;5069526;28;20021;-61
2020/12/03 05:12:55;;;;;;;157.70;60.47;;;;;;;;;;5070141;28;20086;-61
2020/12/03 05:15:30;;;;;;;136.52;54.90;;;;;;;;;;5066722;28;20081;-61
2020/12/03 05:18:11;;;;;;;130.10;53.85;;;;;;;;;;5068303;28;20484;-61
2020/12/03 05:20:40;;;;;;;160.73;69.03;;;;;;;;;;5066997;28;20024;-61
2020/12/03 05:23:17;;;;;;;134.15;55.67;;;;;;;;;;5082228;28;20090;-61
2020/12/03 05:25:44;;;;;;;129.75;52.97;;;;;;;;;;5080070;28;20032;-61
2020/12/03 05:28:22;;;;;;;147.32;65.03;;;;;;;;;;5074650;28;20029;-61
2020/12/03 05:30:53;;;;;;;130.85;53.45;;;;;;;;;;5067724;28;20020;-61
2020/12/03 05:33:19;;;;;;;170.65;73.53;;;;;;;;;;5067694;28;20040;-61
2020/12/03 05:35:45;;;;;;;129.30;53.80;;;;;;;;;;5071613;28;20503;-61
2020/12/03 05:38:22;;;;;;;137.02;54.08;;;;;;;;;;5070528;28;20028;-61
2020/12/03 05:40:56;;;;;;;141.85;55.40;;;;;;;;;;5069967;28;20034;-61
2020/12/03 05:43:22;;;;;;;129.50;53.92;;;;;;;;;;5069644;28;20028;-61
2020/12/03 05:45:49;;;;;;;139.07;55.40;;;;;;;;;;5071041;28;20112;-61
2020/12/03 05:48:15;;;;;;;132.07;53.97;;;;;;;;;;5072611;28;20028;-61
2020/12/03 05:50:42;;;;;;;140.73;53.65;;;;;;;;;;5070696;28;20020;-61
2020/12/03 05:53:20;;;;;;;139.05;54.45;;;;;;;;;;5080504;28;20554;-61
2020/12/03 05:55:46;;;;;;;128.15;54.17;;;;;;;;;;5072046;28;20039;-61
2020/12/03 05:58:14;;;;;;;135.77;58.15;;;;;;;;;;5070495;28;20565;-61
2020/12/03 06:00:41;;;;;;;149.38;64.78;;;;;;;;;;5077136;28;20083;-61
2020/12/03 06:03:25;;;;;;;128.27;52.92;;;;;;;;;;5075557;28;20037;-61
2020/12/03 06:06:01;;;;;;;131.90;53.15;;;;;;;;;;5076672;28;20054;-61
2020/12/03 06:08:41;;;;;;;149.13;65.88;;;;;;;;;;5080510;28;20025;-61
2020/12/03 06:11:07;;;;;;;170.95;77.72;;;;;;;;;;5073782;28;20370;-61
2020/12/03 06:13:35;;;;;;;129.60;54.15;;;;;;;;;;5086599;28;20032;-61
2020/12/03 06:16:03;;;;;;;123.97;51.33;;;;;;;;;;5083423;28;20039;-61
2020/12/03 06:18:41;;;;;;;154.15;66.20;;;;;;;;;;5076140;28;20570;-61
2020/12/03 06:21:18;;;;;;;145.00;60.30;;;;;;;;;;5072114;28;20145;-61
2020/12/03 06:23:56;;;;;;;125.28;51.63;;;;;;;;;;5079638;28;20032;-61
2020/12/03 06:26:43;;;;;;;125.90;54.00;;;;;;;;;;5079095;28;20532;-61
2020/12/03 06:29:35;;;;;;;142.32;56.30;;;;;;;;;;5071437;28;20524;-61
2020/12/03 06:32:05;;;;;;;134.40;51.97;;;;;;;;;;5082962;28;20132;-60
2020/12/03 06:34:41;;;;;;;137.98;54.55;;;;;;;;;;5089514;28;20121;-61
2020/12/03 06:37:14;;;;;;;130.23;51.20;;;;;;;;;;5058297;28;20033;-61
2020/12/03 06:39:50;;;;;;;138.00;53.65;;;;;;;;;;5078436;28;20033;-61
2020/12/03 06:42:35;;;;;;;133.35;52.90;;;;;;;;;;5080263;28;20027;-61
2020/12/03 06:45:21;;;;;;;132.63;52.60;;;;;;;;;;5070717;28;20040;-61
2020/12/03 06:47:58;;;;;;;136.50;56.88;;;;;;;;;;5071889;28;20035;-61
2020/12/03 06:50:24;;;;;;;164.90;60.90;;;;;;;;;;5065345;28;20025;-61
2020/12/03 06:53:18;;;;;;;139.25;55.97;;;;;;;;;;5084460;28;20541;-61
2020/12/03 06:56:02;;;;;;;119.65;50.30;;;;;;;;;;5062562;28;20456;-61
2020/12/03 06:58:41;;;;;;;129.57;52.92;;;;;;;;;;5070479;28;20035;-61
2020/12/03 07:01:22;;;;;;;119.72;50.25;;;;;;;;;;5088052;28;20044;-61
2020/12/03 07:03:50;;;;;;;118.32;54.97;;;;;;;;;;5067748;28;20387;-61
2020/12/03 07:06:35;;;;;;;124.85;51.30;;;;;;;;;;5066625;28;20116;-61
2020/12/03 07:09:10;;;;;;;131.45;56.67;;;;;;;;;;5061304;28;20734;-61
2020/12/03 07:11:53;;;;;;;150.02;69.78;;;;;;;;;;5085642;28;20104;-61
2020/12/03 07:14:37;;;;;;;109.15;41.05;;;;;;;;;;5082523;28;20035;-61
2020/12/03 07:17:23;;;;;;;121.85;47.15;;;;;;;;;;5061898;28;20024;-61
2020/12/03 07:20:08;;;;;;;122.03;52.90;;;;;;;;;;5054948;28;20047;-61
2020/12/03 07:22:36;;;;;;;128.23;48.33;;;;;;;;;;5084793;28;20089;-61
2020/12/03 07:25:03;;;;;;;118.50;49.25;;;;;;;;;;5067156;28;20028;-61
2020/12/03 07:27:41;;;;;;;124.25;51.28;;;;;;;;;;5065609;28;20047;-61
2020/12/03 07:30:27;;;;;;;126.38;51.45;;;;;;;;;;5060037;28;20325;-61
2020/12/03 07:32:53;;;;;;;121.70;48.13;;;;;;;;;;5071856;28;20082;-61
2020/12/03 07:35:36;;;;;;;119.60;48.72;;;;;;;;;;5081754;28;20028;-61
2020/12/03 07:38:05;;;;;;;121.63;47.08;;;;;;;;;;5049841;28;20028;-61
2020/12/03 07:40:32;;;;;;;118.90;48.45;;;;;;;;;;5070881;28;20029;-61
2020/12/03 07:43:03;;;;;;;117.65;48.55;;;;;;;;;;5088785;28;20031;-61
2020/12/03 07:45:36;;;;;;;124.47;47.30;;;;;;;;;;5076955;28;20352;-61
2020/12/03 07:48:02;;;;;;;;;;;;;;;;;;5084353;28;20017;-61
2020/12/03 07:50:28;;;;;;;124.35;47.35;;;;;;;;;;5059347;28;19908;-61
2020/12/03 07:53:13;;;;;;;108.80;48.03;;;;;;;;;;5081512;28;20751;-61
2020/12/03 07:55:39;;;;;;;131.27;53.45;;;;;;;;;;5059159;28;20031;-61
2020/12/03 07:58:05;;;;;;;129.80;52.42;;;;;;;;;;5081779;28;20028;-61
2020/12/03 08:00:31;;;;;;;116.13;47.72;;;;;;;;;;5089004;28;20048;-61
2020/12/03 08:02:58;;;;;;;115.78;46.55;;;;;;;;;;5087494;28;20024;-61
2020/12/03 08:05:28;;;;;;;113.53;46.30;;;;;;;;;;5081942;28;20517;-61
2020/12/03 08:07:55;;;;;;;117.38;48.25;;;;;;;;;;5082348;28;20023;-61
2020/12/03 08:10:40;;;;;;;107.93;46.33;;;;;;;;;;5088983;28;20020;-61
2020/12/03 08:13:14;;;;;;;112.07;47.95;;;;;;;;;;5087914;28;20037;-61
2020/12/03 08:15:41;;;;;;;121.20;48.53;;;;;;;;;;5072666;28;20059;-61
2020/12/03 08:18:27;;;;;;;110.60;45.65;;;;;;;;;;5072947;28;20028;-61
2020/12/03 08:20:56;;;;;;;113.40;46.80;;;;;;;;;;5088891;28;20035;-60
2020/12/03 08:23:22;;;;;;;109.47;46.60;;;;;;;;;;5088567;28;20081;-61
2020/12/03 08:25:48;;;;;;;107.25;45.78;;;;;;;;;;5088764;28;20028;-61
2020/12/03 08:28:20;;;;;;;112.35;46.55;;;;;;;;;;5061937;28;20036;-61
2020/12/03 08:30:52;;;;;;;109.68;45.17;;;;;;;;;;5076520;28;20036;-61
2020/12/03 08:33:34;;;;;;;119.95;48.58;;;;;;;;;;5088140;28;20459;-61
2020/12/03 08:36:02;;;;;;;92.93;35.35;;;;;;;;;;5089011;28;20114;-61
2020/12/03 08:38:33;;;;;;;112.97;46.35;;;;;;;;;;5070229;28;20025;-61
2020/12/03 08:41:05;;;;;;;108.60;45.17;;;;;;;;;;5086364;28;20099;-61
2020/12/03 08:43:41;;;;;;;109.07;44.85;;;;;;;;;;5088771;28;20024;-61
2020/12/03 08:46:22;;;;;;;102.72;42.03;;;;;;;;;;5088755;28;20028;-61
2020/12/03 08:48:48;;;;;;;113.40;46.55;;;;;;;;;;5074111;28;20025;-61
2020/12/03 08:51:16;;;;;;;102.95;43.22;;;;;;;;;;5088678;28;20036;-61
2020/12/03 08:53:47;;;;;;;103.10;43.00;;;;;;;;;;5088470;28;20845;-61
2020/12/03 08:56:16;;;;;;;106.28;44.13;;;;;;;;;;5088247;28;20028;-61
2020/12/03 08:59:00;;;;;;;102.20;42.65;;;;;;;;;;5077890;28;20020;-61
2020/12/03 09:01:30;;;;;;;105.30;43.85;;;;;;;;;;5088220;28;20135;-61
2020/12/03 09:03:58;;;;;;;101.03;42.55;;;;;;;;;;5085147;28;20056;-61
2020/12/03 09:06:28;;;;;;;101.88;40.78;;;;;;;;;;5084442;28;20036;-61
2020/12/03 09:08:54;;;;;;;101.95;41.55;;;;;;;;;;5078727;28;20024;-61
2020/12/03 09:11:21;;;;;;;95.05;40.80;;;;;;;;;;5092289;28;20024;-61
2020/12/03 09:13:47;;;;;;;99.65;41.33;;;;;;;;;;5090361;28;20038;-61
2020/12/03 09:16:14;;;;;;;103.78;42.60;;;;;;;;;;5078344;28;20071;-61
2020/12/03 09:18:41;;;;;;;98.38;39.60;;;;;;;;;;5092449;28;20538;-61
2020/12/03 09:21:07;;;;;;;101.53;43.45;;;;;;;;;;5092303;28;20050;-61
2020/12/03 09:23:36;;;;;;;98.80;40.70;;;;;;;;;;5092099;28;20024;-61
2020/12/03 09:26:10;;;;;;;112.88;43.55;;;;;;;;;;5086403;28;20696;-61
2020/12/03 09:28:36;;;;;;;99.82;40.28;;;;;;;;;;5082174;28;20073;-61
2020/12/03 09:31:02;;;;;;;101.53;42.10;;;;;;;;;;5092014;28;20095;-61
2020/12/03 09:33:28;;;;;;;103.78;41.95;;;;;;;;;;5085391;28;20040;-61
2020/12/03 09:35:54;;;;;;;102.70;41.42;;;;;;;;;;5087800;28;20371;-61
2020/12/03 09:38:21;;;;;;;98.68;41.55;;;;;;;;;;5091942;28;20379;-61
2020/12/03 09:40:48;;;;;;;95.28;40.63;;;;;;;;;;5077113;28;20039;-61
2020/12/03 09:43:18;;;;;;;98.07;39.92;;;;;;;;;;5082026;28;20040;-61
2020/12/03 09:45:47;;;;;;;92.97;39.88;;;;;;;;;;5088613;28;20028;-61
2020/12/03 09:48:15;;;;;;;90.30;39.22;;;;;;;;;;5088609;28;20033;-61
2020/12/03 09:50:42;;;;;;;87.30;39.42;;;;;;;;;;5089293;28;20028;-61
2020/12/03 09:53:12;;;;;;;90.30;38.92;;;;;;;;;;5089155;28;20036;-61
2020/12/03 09:55:38;;;;;;;96.32;40.53;;;;;;;;;;5068793;28;20048;-61
2020/12/03 09:58:04;;;;;;;92.60;37.63;;;;;;;;;;5073801;28;20051;-61
2020/12/03 10:00:31;;;;;;;85.65;37.70;;;;;;;;;;5091083;28;20048;-61
2020/12/03 10:02:57;;;;;;;89.68;37.42;;;;;;;;;;5089577;28;20032;-61
2020/12/03 10:05:59;;;;;;;89.72;36.80;;;;;;;;;;5070544;28;20499;-61
2020/12/03 10:08:25;;;;;;;85.38;35.42;;;;;;;;;;5039910;28;20029;-61
2020/12/03 10:11:09;;;;;;;84.95;37.05;;;;;;;;;;5065338;28;20032;-61
2020/12/03 10:13:38;;;;;;;80.25;35.25;;;;;;;;;;5085837;28;20032;-61
2020/12/03 10:16:10;;;;;;;83.53;36.13;;;;;;;;;;5077604;28;20032;-61
2020/12/03 10:18:39;;;;;;;88.13;35.80;;;;;;;;;;5090327;28;20470;-61
2020/12/03 10:21:05;;;;;;;84.78;34.17;;;;;;;;;;5090874;28;20032;-61
2020/12/03 10:23:31;;;;;;;79.68;33.85;;;;;;;;;;5079196;28;20070;-61
2020/12/03 10:26:06;;;;;;;82.82;36.47;;;;;;;;;;5091071;28;20032;-61
2020/12/03 10:28:37;;;;;;;77.57;34.20;;;;;;;;;;5091500;28;20386;-61
2020/12/03 10:31:05;;;;;;;79.47;33.83;;;;;;;;;;5091268;28;20025;-61
2020/12/03 10:33:35;;;;;;;78.18;34.17;;;;;;;;;;5082639;28;20040;-61
2020/12/03 10:36:03;;;;;;;80.38;34.20;;;;;;;;;;5069138;28;20033;-61
2020/12/03 10:38:35;;;;;;;73.30;33.40;;;;;;;;;;5073227;28;20059;-61
2020/12/03 10:41:03;;;;;;;76.15;34.38;;;;;;;;;;5091030;28;20058;-61
2020/12/03 10:43:36;;;;;;;78.53;33.92;;;;;;;;;;5090890;28;20035;-61
2020/12/03 10:46:08;;;;;;;82.05;34.83;;;;;;;;;;5090467;28;20681;-61
2020/12/03 10:48:36;;;;;;;75.57;32.58;;;;;;;;;;5082870;28;20020;-61
2020/12/03 10:51:07;;;;;;;71.03;30.80;;;;;;;;;;5090593;28;20420;-61
2020/12/03 10:53:33;;;;;;;71.47;31.27;;;;;;;;;;5090295;28;20024;-61
2020/12/03 10:56:06;;;;;;;78.38;32.85;;;;;;;;;;5090391;28;20115;-61
2020/12/03 10:58:51;;;;;;;77.90;33.75;;;;;;;;;;5058873;28;20032;-61
2020/12/03 11:01:21;;;;;;;74.93;33.03;;;;;;;;;;5090193;28;20048;-61
2020/12/03 11:03:48;;;;;;;74.45;32.25;;;;;;;;;;5087070;28;20035;-61
2020/12/03 11:06:15;;;;;;;72.88;31.77;;;;;;;;;;5090347;28;20370;-61
2020/12/03 11:08:41;;;;;;;74.20;32.28;;;;;;;;;;5078047;28;20032;-60
2020/12/03 11:11:08;;;;;;;76.63;31.90;;;;;;;;;;5090111;28;20023;-61
2020/12/03 11:13:34;;;;;;;75.50;32.53;;;;;;;;;;5088995;28;20028;-61
2020/12/03 11:16:02;;;;;;;74.03;33.03;;;;;;;;;;5076827;28;20028;-61
2020/12/03 11:18:29;;;;;;;73.93;30.98;;;;;;;;;;5076275;28;20126;-61
2020/12/03 11:20:59;;;;;;;65.70;30.08;;;;;;;;;;5076003;28;20025;-61
2020/12/03 11:23:28;;;;;;;69.07;30.98;;;;;;;;;;5063197;28;20032;-61
2020/12/03 11:25:56;;;;;;;76.32;32.65;;;;;;;;;;5089785;28;20044;-61
2020/12/03 11:28:23;;;;;;;68.80;32.05;;;;;;;;;;5071634;28;20589;-61
2020/12/03 11:30:56;;;;;;;66.22;30.65;;;;;;;;;;5082745;28;20427;-61
2020/12/03 11:33:26;;;;;;;67.72;29.52;;;;;;;;;;5077640;28;20027;-61
2020/12/03 11:36:01;;;;;;;74.18;31.42;;;;;;;;;;5089697;28;20531;-61
2020/12/03 11:38:31;;;;;;;70.25;30.50;;;;;;;;;;5089579;28;20662;-61
2020/12/03 11:40:58;;;;;;;76.10;31.55;;;;;;;;;;5079768;28;20037;-61
2020/12/03 11:43:50;;;;;;;71.78;30.63;;;;;;;;;;5075132;28;20028;-61
2020/12/03 11:48:51;;;;;;;75.88;33.28;;;;;;;;;;5077173;28;20112;-61
2020/12/03 11:51:26;;;;;;;76.90;33.05;;;;;;;;;;5078277;28;20125;-61
2020/12/03 11:53:56;;;;;;;99.47;45.08;;;;;;;;;;5070417;28;20031;-61
2020/12/03 11:56:22;;;;;;;76.80;34.05;;;;;;;;;;5076037;28;20032;-61
2020/12/03 11:58:48;;;;;;;72.22;34.13;;;;;;;;;;5075008;28;20032;-61
2020/12/03 12:01:16;;;;;;;78.13;36.80;;;;;;;;;;5077011;28;20044;-61
2020/12/03 12:03:45;;;;;;;78.35;36.33;;;;;;;;;;5062648;28;20563;-61
2020/12/03 12:06:38;;;;;;;72.38;32.70;;;;;;;;;;5074078;28;20028;-61
2020/12/03 12:11:36;;;;;;;71.10;32.33;;;;;;;;;;5070599;28;20091;-61
2020/12/03 12:14:02;;;;;;;68.43;30.67;;;;;;;;;;5075077;28;20058;-61
2020/12/03 12:16:28;;;;;;;69.45;30.05;;;;;;;;;;5066933;28;20464;-61
2020/12/03 12:18:55;;;;;;;76.85;32.60;;;;;;;;;;5082800;28;20032;-61
2020/12/03 12:21:21;;;;;;;74.05;33.10;;;;;;;;;;5074625;28;20056;-61
2020/12/03 12:23:47;;;;;;;66.13;29.98;;;;;;;;;;5067284;28;20036;-61
2020/12/03 12:26:13;;;;;;;63.28;30.65;;;;;;;;;;5082446;28;20081;-61
2020/12/03 12:28:39;;;;;;;69.80;30.92;;;;;;;;;;5078846;28;20047;-61
2020/12/03 12:31:05;;;;;;;82.60;33.38;;;;;;;;;;5083829;28;20399;-61
2020/12/03 12:33:31;;;;;;;67.85;31.05;;;;;;;;;;5073541;28;20455;-61
2020/12/03 12:35:57;;;;;;;76.25;31.65;;;;;;;;;;5073152;28;20121;-61
2020/12/03 12:38:23;;;;;;;70.35;29.60;;;;;;;;;;5078012;28;20580;-61
2020/12/03 12:40:49;;;;;;;72.93;29.83;;;;;;;;;;5083556;28;20479;-61
2020/12/03 12:43:15;;;;;;;70.32;29.35;;;;;;;;;;5075860;28;20028;-61
2020/12/03 12:45:41;;;;;;;65.03;28.45;;;;;;;;;;5074414;28;20035;-62
2020/12/03 12:48:07;;;;;;;68.82;29.88;;;;;;;;;;5082634;28;20365;-62
2020/12/03 12:50:33;;;;;;;65.00;28.80;;;;;;;;;;5076256;28;20048;-62
2020/12/03 12:52:59;;;;;;;65.35;29.15;;;;;;;;;;5089519;28;20024;-62
2020/12/03 12:55:26;;;;;;;70.22;30.35;;;;;;;;;;5072446;28;20529;-62
2020/12/03 12:57:52;;;;;;;61.83;28.65;;;;;;;;;;5088286;28;20032;-62
2020/12/03 13:00:18;;;;;;;65.50;29.58;;;;;;;;;;5080121;28;20051;-62
2020/12/03 13:02:45;;;;;;;72.50;33.28;;;;;;;;;;5079495;28;20028;-62
2020/12/03 13:05:11;;;;;;;61.88;29.13;;;;;;;;;;5085615;28;20020;-62
2020/12/03 13:07:36;;;;;;;63.95;29.00;;;;;;;;;;5078582;28;20586;-62
2020/12/03 13:10:03;;;;;;;62.97;28.95;;;;;;;;;;5085013;28;20403;-62
2020/12/03 13:12:29;;;;;;;66.18;28.05;;;;;;;;;;5083959;28;20166;-62
2020/12/03 13:14:54;;;;;;;61.05;28.23;;;;;;;;;;5060922;28;20452;-62
2020/12/03 13:17:21;;;;;;;60.88;27.83;;;;;;;;;;5060476;28;20131;-62
2020/12/03 13:19:47;;;;;;;73.80;29.85;;;;;;;;;;5077242;28;20838;-61
2020/12/03 13:22:13;;;;;;;61.83;27.77;;;;;;;;;;5083257;28;20720;-61
2020/12/03 13:24:39;;;;;;;64.47;28.98;;;;;;;;;;5059958;28;20036;-61
2020/12/03 13:27:05;;;;;;;70.15;29.48;;;;;;;;;;5078566;28;20020;-61
2020/12/03 13:29:31;;;;;;;66.55;27.95;;;;;;;;;;5085081;28;20032;-61
2020/12/03 13:31:57;;;;;;;57.72;27.52;;;;;;;;;;5080032;28;20423;-61
2020/12/03 13:34:24;;;;;;;69.70;30.00;;;;;;;;;;5069656;28;20140;-61
2020/12/03 13:36:50;;;;;;;66.40;28.38;;;;;;;;;;5084568;28;20043;-61
2020/12/03 13:39:16;;;;;;;66.03;28.08;;;;;;;;;;5075998;28;20028;-61
2020/12/03 13:41:42;;;;;;;63.60;27.98;;;;;;;;;;5059105;28;20058;-62
2020/12/03 13:44:09;;;;;;;61.60;26.88;;;;;;;;;;5063795;28;20025;-62
2020/12/03 13:46:38;;;;;;;63.88;28.25;;;;;;;;;;5070780;28;20024;-62
2020/12/03 13:49:04;;;;;;;61.95;27.45;;;;;;;;;;5077307;28;20127;-62
2020/12/03 13:51:30;;;;;;;66.82;29.38;;;;;;;;;;5065775;28;20036;-62
2020/12/03 13:53:56;;;;;;;60.75;28.80;;;;;;;;;;5069388;28;20115;-61
2020/12/03 13:56:23;;;;;;;62.47;28.33;;;;;;;;;;5072817;28;20052;-61
2020/12/03 13:58:48;;;;;;;60.72;29.73;;;;;;;;;;5075061;28;20028;-61
2020/12/03 14:01:14;;;;;;;69.20;29.30;;;;;;;;;;5083089;28;20652;-61
2020/12/03 14:03:40;;;;;;;70.90;29.08;;;;;;;;;;5077016;28;20106;-61
2020/12/03 14:06:06;;;;;;;65.30;28.30;;;;;;;;;;5072104;28;20405;-61
2020/12/03 14:08:32;;;;;;;64.28;28.67;;;;;;;;;;5083576;28;20027;-61
2020/12/03 14:10:58;;;;;;;67.55;29.83;;;;;;;;;;5080189;28;20020;-61
2020/12/03 14:13:25;;;;;;;58.58;27.17;;;;;;;;;;5087280;28;20024;-61
2020/12/03 14:15:51;;;;;;;61.97;29.08;;;;;;;;;;5078617;28;20056;-61
2020/12/03 14:18:17;;;;;;;64.68;29.10;;;;;;;;;;5086148;28;20087;-62
2020/12/03 14:20:43;;;;;;;58.47;26.17;;;;;;;;;;5083330;28;20040;-61
2020/12/03 14:23:09;;;;;;;65.07;27.05;;;;;;;;;;5080491;28;20097;-62
2020/12/03 14:25:34;;;;;;;59.42;25.92;;;;;;;;;;5087883;28;20029;-62